createdAt,value
2022-11-05T00:02:12.026Z,97362.69
2022-11-05T00:05:36.442Z,97354.34
2022-11-05T00:08:59.869Z,97361.50
2022-11-05T00:12:26.785Z,97369.81
2022-11-05T00:15:49.422Z,97378.38
2022-11-05T00:22:40.303Z,97397.72
2022-11-05T00:25:46.900Z,97399.22
2022-11-05T00:28:52.500Z,97404.28
2022-11-05T00:31:59.008Z,97396.47
2022-11-05T00:35:07.946Z,97414.41
2022-11-05T00:38:17.211Z,97409.50
2022-11-05T00:41:22.867Z,97413.78
2022-11-05T00:44:45.092Z,97412.31
2022-11-05T00:48:06.660Z,97412.66
2022-11-05T00:51:13.166Z,97408.59
2022-11-05T00:54:21.626Z,97404.38
2022-11-05T00:57:28.256Z,97403.97
2022-11-05T01:00:35.897Z,97404.41
2022-11-05T01:03:48.802Z,97407.97
2022-11-05T01:06:57.832Z,97406.09
2022-11-05T01:10:07.924Z,97423.13
2022-11-05T01:13:15.235Z,97406.56
2022-11-05T01:16:22.024Z,97412.75
2022-11-05T01:19:29.512Z,97411.06
2022-11-05T01:22:36.048Z,97426.97
2022-11-05T01:25:44.836Z,97414.22
2022-11-05T01:28:53.985Z,97410.88
2022-11-05T01:31:59.739Z,97425.94
2022-11-05T01:35:07.399Z,97421.53
2022-11-05T01:38:13.601Z,97429.06
2022-11-05T01:41:22.914Z,97439.22
2022-11-05T01:45:01.322Z,97444.16
2022-11-05T01:48:14.272Z,97455.94
2022-11-05T01:51:23.302Z,97457.50
2022-11-05T01:54:32.757Z,97449.22
2022-11-05T01:57:41.285Z,97457.69
2022-11-05T02:00:47.993Z,97456.88
2022-11-05T02:03:58.469Z,97466.50
2022-11-05T02:07:10.793Z,97443.69
2022-11-05T02:10:19.276Z,97476.00
2022-11-05T02:13:28.479Z,97476.78
2022-11-05T02:16:42.453Z,97484.50
2022-11-05T02:20:12.898Z,97487.13
2022-11-05T02:23:56.837Z,97492.47
2022-11-05T02:27:26.823Z,97498.63
2022-11-05T02:30:45.312Z,97508.38
2022-11-05T02:34:03.069Z,97502.09
2022-11-05T02:37:15.576Z,97510.97
2022-11-05T02:40:29.983Z,97517.56
2022-11-05T02:43:48.784Z,97520.16
2022-11-05T02:47:06.289Z,97524.13
2022-11-05T02:50:23.053Z,97519.75
2022-11-05T02:53:40.658Z,97516.41
2022-11-05T02:56:49.803Z,97522.38
2022-11-05T03:00:04.352Z,97541.63
2022-11-05T03:03:18.829Z,97534.72
2022-11-05T03:06:40.675Z,97531.06
2022-11-05T03:10:16.479Z,97541.63
2022-11-05T03:13:31.441Z,97539.03
2022-11-05T03:16:43.770Z,97556.91
2022-11-05T03:20:03.619Z,97554.03
2022-11-05T03:23:15.011Z,97557.75
2022-11-05T03:26:26.583Z,97560.63
2022-11-05T03:29:36.635Z,97566.38
2022-11-05T03:32:47.967Z,97566.00
2022-11-05T03:36:00.198Z,97561.41
2022-11-05T03:39:13.970Z,97555.91
2022-11-05T03:42:25.965Z,97585.31
2022-11-05T03:45:37.556Z,97581.22
2022-11-05T03:48:53.036Z,97598.59
2022-11-05T03:52:06.985Z,97595.41
2022-11-05T03:55:13.486Z,97595.25
2022-11-05T03:58:22.469Z,97581.72
2022-11-05T04:01:28.734Z,97588.00
2022-11-05T04:04:35.253Z,97604.25
2022-11-05T04:07:59.909Z,97616.59
2022-11-05T04:11:24.144Z,97627.41
2022-11-05T04:14:29.810Z,97625.56
2022-11-05T04:17:33.817Z,97617.16
2022-11-05T04:20:55.231Z,97606.91
2022-11-05T04:24:12.993Z,97605.19
2022-11-05T04:27:18.932Z,97623.63
2022-11-05T04:30:25.369Z,97617.91
2022-11-05T04:33:32.010Z,97616.41
2022-11-05T04:36:38.448Z,97622.84
2022-11-05T04:39:46.814Z,97617.81
2022-11-05T04:42:53.312Z,97626.38
2022-11-05T04:45:58.949Z,97624.25
2022-11-05T04:49:07.368Z,97629.47
2022-11-05T04:52:12.965Z,97633.94
2022-11-05T04:55:22.395Z,97627.97
2022-11-05T04:58:27.986Z,97633.38
2022-11-05T05:01:34.592Z,97634.03
2022-11-05T05:04:40.456Z,97642.22
2022-11-05T05:07:47.140Z,97637.78
2022-11-05T05:10:55.572Z,97653.91
2022-11-05T05:14:03.222Z,97654.44
2022-11-05T05:17:08.999Z,97666.16
2022-11-05T05:20:31.284Z,97661.22
2022-11-05T05:23:36.839Z,97679.66
2022-11-05T05:26:48.371Z,97696.22
2022-11-05T05:29:53.950Z,97683.28
2022-11-05T05:33:04.232Z,97669.44
2022-11-05T05:36:11.575Z,97674.59
2022-11-05T05:39:18.243Z,97675.34
2022-11-05T05:42:26.679Z,97692.78
2022-11-05T05:45:33.456Z,97702.38
2022-11-05T05:48:39.114Z,97695.31
2022-11-05T05:51:45.604Z,97706.66
2022-11-05T05:54:51.199Z,97705.16
2022-11-05T05:58:00.557Z,97719.13
2022-11-05T06:01:12.910Z,97719.31
2022-11-05T06:04:22.134Z,97727.72
2022-11-05T06:07:30.684Z,97726.63
2022-11-05T06:10:40.401Z,97726.06
2022-11-05T06:13:48.787Z,97730.91
2022-11-05T06:16:55.285Z,97733.63
2022-11-05T06:20:00.827Z,97741.53
2022-11-05T06:23:08.681Z,97739.69
2022-11-05T06:26:16.256Z,97760.91
2022-11-05T06:29:25.503Z,97770.16
2022-11-05T06:32:31.438Z,97774.38
2022-11-05T06:35:40.668Z,97785.22
2022-11-05T06:38:46.294Z,97775.06
2022-11-05T06:45:21.276Z,97795.09
2022-11-05T06:48:28.895Z,97803.81
2022-11-05T06:51:34.604Z,97830.78
2022-11-05T06:54:42.504Z,97822.03
2022-11-05T06:57:48.395Z,97829.59
2022-11-05T07:00:57.697Z,97840.38
2022-11-05T07:04:03.595Z,97827.75
2022-11-05T07:07:10.146Z,97835.09
2022-11-05T07:10:18.145Z,97842.59
2022-11-05T07:13:24.953Z,97843.53
2022-11-05T07:16:33.444Z,97849.50
2022-11-05T07:19:39.903Z,97845.13
2022-11-05T07:22:45.546Z,97858.09
2022-11-05T07:25:52.006Z,97859.09
2022-11-05T07:28:58.118Z,97852.97
2022-11-05T07:32:07.815Z,97870.00
2022-11-05T07:35:13.405Z,97864.69
2022-11-05T07:38:21.942Z,97861.00
2022-11-05T07:41:27.578Z,97874.63
2022-11-05T07:44:34.131Z,97882.72
2022-11-05T07:47:48.228Z,97871.50
2022-11-05T07:50:58.478Z,97875.72
2022-11-05T07:54:04.296Z,97884.97
2022-11-05T07:57:11.046Z,97887.09
2022-11-05T08:00:20.127Z,97883.06
2022-11-05T08:03:29.484Z,97875.56
2022-11-05T08:06:35.214Z,97879.28
2022-11-05T08:09:44.647Z,97881.19
2022-11-05T08:12:50.265Z,97877.00
2022-11-05T08:15:59.070Z,97872.91
2022-11-05T08:19:07.723Z,97880.50
2022-11-05T08:22:14.183Z,97889.13
2022-11-05T08:25:19.765Z,97882.22
2022-11-05T08:28:27.652Z,97888.97
2022-11-05T08:31:37.202Z,97908.16
2022-11-05T08:34:52.049Z,97920.97
2022-11-05T08:38:04.441Z,97916.91
2022-11-05T08:41:11.211Z,97912.72
2022-11-05T08:44:16.819Z,97921.50
2022-11-05T08:47:23.949Z,97918.03
2022-11-05T08:50:32.823Z,97927.22
2022-11-05T08:53:39.621Z,97928.06
2022-11-05T08:56:45.318Z,97929.06
2022-11-05T08:59:52.041Z,97936.91
2022-11-05T09:02:57.818Z,97936.00
2022-11-05T09:06:07.783Z,97927.06
2022-11-05T09:09:13.457Z,97928.56
2022-11-05T09:12:21.258Z,97929.41
2022-11-05T09:15:27.495Z,97929.41
2022-11-05T09:18:34.468Z,97926.88
2022-11-05T09:21:43.089Z,97938.09
2022-11-05T09:24:50.083Z,97940.69
2022-11-05T09:27:55.673Z,97929.25
2022-11-05T09:31:03.273Z,97937.00
2022-11-05T09:34:08.874Z,97947.09
2022-11-05T09:37:18.369Z,97947.78
2022-11-05T09:40:24.051Z,97953.66
2022-11-05T09:43:36.952Z,97953.34
2022-11-05T09:46:48.362Z,97955.69
2022-11-05T09:49:57.415Z,97957.56
2022-11-05T09:53:07.568Z,97962.63
2022-11-05T09:56:24.540Z,97952.84
2022-11-05T09:59:33.494Z,97961.44
2022-11-05T10:02:49.315Z,97973.56
2022-11-05T10:05:57.086Z,97973.75
2022-11-05T10:09:15.213Z,97972.06
2022-11-05T10:12:26.028Z,97980.81
2022-11-05T10:15:37.348Z,97972.66
2022-11-05T10:18:46.042Z,97976.59
2022-11-05T10:22:06.111Z,97980.00
2022-11-05T10:25:22.562Z,97974.94
2022-11-05T10:28:31.620Z,97995.69
2022-11-05T10:31:40.279Z,97995.69
2022-11-05T10:34:47.614Z,98000.81
2022-11-05T10:37:54.472Z,97997.53
2022-11-05T10:41:18.310Z,97994.31
2022-11-05T10:44:35.499Z,97998.69
2022-11-05T10:47:55.125Z,97983.22
2022-11-05T10:51:00.837Z,97992.38
2022-11-05T10:54:16.808Z,97984.53
2022-11-05T10:57:40.383Z,97996.50
2022-11-05T11:00:48.216Z,98003.09
2022-11-05T11:03:56.252Z,97995.50
2022-11-05T11:07:03.274Z,97999.72
2022-11-05T11:10:09.527Z,98011.69
2022-11-05T11:13:25.976Z,98014.91
2022-11-05T11:16:36.629Z,98013.22
2022-11-05T11:19:43.057Z,98011.38
2022-11-05T11:23:06.599Z,98011.78
2022-11-05T11:26:14.879Z,98016.25
2022-11-05T11:29:29.092Z,98020.13
2022-11-05T11:32:39.522Z,98029.09
2022-11-05T11:35:49.466Z,98028.13
2022-11-05T11:39:03.599Z,98029.09
2022-11-05T11:42:18.745Z,98032.63
2022-11-05T11:45:33.177Z,98022.00
2022-11-05T11:48:39.421Z,98032.28
2022-11-05T11:51:50.255Z,98028.66
2022-11-05T11:54:56.741Z,98032.28
2022-11-05T11:58:09.885Z,98039.72
2022-11-05T12:01:55.468Z,98034.97
2022-11-05T12:05:19.087Z,98032.34
2022-11-05T12:08:45.989Z,98035.66
2022-11-05T12:12:03.850Z,98035.66
2022-11-05T12:15:27.611Z,98044.75
2022-11-05T12:18:43.244Z,98054.28
2022-11-05T12:21:57.364Z,98060.63
2022-11-05T12:25:17.555Z,98050.66
2022-11-05T12:29:04.797Z,98055.47
2022-11-05T12:32:34.635Z,98057.75
2022-11-05T12:35:58.287Z,98054.00
2022-11-05T12:39:31.530Z,98058.91
2022-11-05T12:42:51.497Z,98065.06
2022-11-05T12:46:06.575Z,98095.97
2022-11-05T12:49:31.012Z,98086.09
2022-11-05T12:53:04.057Z,98081.97
2022-11-05T12:56:17.284Z,98080.34
2022-11-05T12:59:28.711Z,98083.75
2022-11-05T13:02:40.809Z,98088.13
2022-11-05T13:05:51.582Z,98091.00
2022-11-05T13:09:06.510Z,98088.56
2022-11-05T13:12:16.310Z,98117.50
2022-11-05T13:15:28.891Z,98121.00
2022-11-05T13:18:43.322Z,98113.25
2022-11-05T13:21:55.748Z,98122.03
2022-11-05T13:25:10.500Z,98127.34
2022-11-05T13:28:24.438Z,98136.13
2022-11-05T13:31:35.780Z,98134.34
2022-11-05T13:34:41.534Z,98140.44
2022-11-05T13:38:10.234Z,98140.34
2022-11-05T13:41:31.200Z,98155.13
2022-11-05T13:45:10.854Z,98139.56
2022-11-05T13:49:04.112Z,98146.50
2022-11-05T13:52:31.443Z,98140.44
2022-11-05T13:55:54.287Z,98140.28
2022-11-05T13:59:26.486Z,98142.94
2022-11-05T14:02:40.760Z,98156.88
2022-11-05T14:05:56.032Z,98146.50
2022-11-05T14:09:06.561Z,98151.91
2022-11-05T14:12:23.327Z,98155.59
2022-11-05T14:15:33.860Z,98180.06
2022-11-05T14:18:46.190Z,98177.44
2022-11-05T14:21:53.597Z,98186.22
2022-11-05T14:25:01.103Z,98207.88
2022-11-05T14:28:57.589Z,98209.59
2022-11-05T14:32:28.053Z,98205.47
2022-11-05T14:35:39.711Z,98225.78
2022-11-05T14:38:51.736Z,98223.06
2022-11-05T14:42:06.791Z,98223.91
2022-11-05T14:45:30.056Z,98213.47
2022-11-05T14:48:43.777Z,98232.53
2022-11-05T14:51:53.140Z,98235.03
2022-11-05T14:55:00.368Z,98231.59
2022-11-05T14:58:29.248Z,98232.22
2022-11-05T15:01:58.207Z,98236.50
2022-11-05T15:05:41.907Z,98240.81
2022-11-05T15:09:00.032Z,98248.72
2022-11-05T15:12:19.620Z,98255.81
2022-11-05T15:15:27.939Z,98256.66
2022-11-05T15:18:39.745Z,98258.34
2022-11-05T15:21:48.592Z,98261.88
2022-11-05T15:24:55.477Z,98262.75
2022-11-05T15:28:10.707Z,98277.44
2022-11-05T15:31:29.650Z,98272.03
2022-11-05T15:34:36.517Z,98279.28
2022-11-05T15:37:54.567Z,98284.34
2022-11-05T15:41:06.358Z,98287.19
2022-11-05T15:44:27.286Z,98290.56
2022-11-05T15:47:34.372Z,98292.34
2022-11-05T15:50:41.335Z,98305.28
2022-11-05T15:57:32.660Z,98295.97
2022-11-05T16:00:39.530Z,98305.44
2022-11-05T16:03:46.750Z,98302.66
2022-11-05T16:06:54.650Z,98304.34
2022-11-05T16:10:11.653Z,98301.72
2022-11-05T16:13:31.809Z,98307.81
2022-11-05T16:16:38.390Z,98306.94
2022-11-05T16:19:45.536Z,98304.50
2022-11-05T16:22:54.838Z,98309.19
2022-11-05T16:26:03.534Z,98324.03
2022-11-05T16:29:15.265Z,98316.34
2022-11-05T16:32:30.595Z,98321.72
2022-11-05T16:35:49.289Z,98325.28
2022-11-05T16:38:54.938Z,98332.25
2022-11-05T16:42:06.524Z,98339.88
2022-11-05T16:45:15.230Z,98340.81
2022-11-05T16:48:21.644Z,98349.56
2022-11-05T16:51:27.668Z,98352.28
2022-11-05T16:54:34.148Z,98354.94
2022-11-05T16:57:42.928Z,98366.34
2022-11-05T17:00:49.907Z,98360.31
2022-11-05T17:03:56.536Z,98365.56
2022-11-05T17:07:03.275Z,98372.63
2022-11-05T17:10:11.418Z,98374.63
2022-11-05T17:13:22.816Z,98370.31
2022-11-05T17:16:33.905Z,98369.41
2022-11-05T17:19:42.795Z,98370.38
2022-11-05T17:22:48.494Z,98368.78
2022-11-05T17:25:57.557Z,98366.31
2022-11-05T17:29:06.284Z,98362.78
2022-11-05T17:32:25.413Z,98368.00
2022-11-05T17:35:33.128Z,98363.69
2022-11-05T17:38:39.947Z,98380.31
2022-11-05T17:41:46.416Z,98379.38
2022-11-05T17:44:55.629Z,98382.84
2022-11-05T17:48:03.864Z,98381.22
2022-11-05T17:51:12.374Z,98389.06
2022-11-05T17:54:17.980Z,98392.53
2022-11-05T17:57:24.489Z,98390.75
2022-11-05T18:00:32.898Z,98390.75
2022-11-05T18:03:39.325Z,98399.38
2022-11-05T18:06:45.580Z,98399.22
2022-11-05T18:09:52.042Z,98407.97
2022-11-05T18:12:57.736Z,98395.75
2022-11-05T18:16:07.208Z,98404.47
2022-11-05T18:19:13.269Z,98404.28
2022-11-05T18:22:19.828Z,98409.38
2022-11-05T18:25:25.773Z,98415.38
2022-11-05T18:28:32.954Z,98413.75
2022-11-05T18:31:41.316Z,98426.63
2022-11-05T18:34:47.780Z,98411.94
2022-11-05T18:37:53.390Z,98411.06
2022-11-05T18:40:59.887Z,98418.16
2022-11-05T18:44:08.769Z,98429.59
2022-11-05T18:47:18.020Z,98417.31
2022-11-05T18:50:23.742Z,98429.44
2022-11-05T18:53:30.813Z,98435.50
2022-11-05T18:56:36.410Z,98435.50
2022-11-05T18:59:46.896Z,98442.44
2022-11-05T19:02:55.353Z,98437.28
2022-11-05T19:06:06.903Z,98442.72
2022-11-05T19:09:13.580Z,98445.19
2022-11-05T19:12:20.477Z,98447.72
2022-11-05T19:15:26.327Z,98456.56
2022-11-05T19:18:35.656Z,98457.28
2022-11-05T19:21:41.216Z,98466.84
2022-11-05T19:24:47.681Z,98466.13
2022-11-05T19:27:58.170Z,98468.81
2022-11-05T19:31:07.191Z,98470.44
2022-11-05T19:34:16.123Z,98479.19
2022-11-05T19:37:22.841Z,98488.66
2022-11-05T19:40:28.488Z,98493.03
2022-11-05T19:43:34.928Z,98500.25
2022-11-05T19:46:40.604Z,98502.94
2022-11-05T19:49:50.163Z,98503.00
2022-11-05T19:52:56.370Z,98502.94
2022-11-05T19:56:03.586Z,98505.47
2022-11-05T19:59:09.758Z,98512.31
2022-11-05T20:02:16.784Z,98506.25
2022-11-05T20:05:25.636Z,98522.00
2022-11-05T20:08:32.307Z,98523.13
2022-11-05T20:11:39.664Z,98522.22
2022-11-05T20:14:46.724Z,98536.28
2022-11-05T20:17:54.056Z,98527.66
2022-11-05T20:21:09.201Z,98540.53
2022-11-05T20:24:22.363Z,98540.53
2022-11-05T20:27:31.843Z,98538.81
2022-11-05T20:30:38.041Z,98540.53
2022-11-05T20:33:46.130Z,98543.31
2022-11-05T20:36:54.966Z,98545.75
2022-11-05T20:40:04.650Z,98542.63
2022-11-05T20:43:10.643Z,98548.00
2022-11-05T20:46:19.463Z,98551.38
2022-11-05T20:49:25.773Z,98547.16
2022-11-05T20:52:36.400Z,98558.44
2022-11-05T20:55:46.051Z,98561.97
2022-11-05T20:58:53.394Z,98566.38
2022-11-05T21:01:59.315Z,98570.75
2022-11-05T21:05:07.727Z,98583.81
2022-11-05T21:08:16.358Z,98577.81
2022-11-05T21:11:23.354Z,98576.25
2022-11-05T21:14:28.946Z,98576.38
2022-11-05T21:17:35.391Z,98564.38
2022-11-05T21:20:42.637Z,98562.66
2022-11-05T21:23:51.846Z,98563.72
2022-11-05T21:26:57.604Z,98561.13
2022-11-05T21:30:04.299Z,98568.97
2022-11-05T21:33:10.836Z,98570.00
2022-11-05T21:36:17.320Z,98580.56
2022-11-05T21:39:25.876Z,98577.28
2022-11-05T21:42:32.813Z,98580.81
2022-11-05T21:45:40.514Z,98574.81
2022-11-05T21:48:46.983Z,98574.88
2022-11-05T21:52:08.404Z,98572.22
2022-11-05T21:55:35.523Z,98567.88
2022-11-05T21:58:56.902Z,98566.13
2022-11-05T22:02:04.364Z,98568.88
2022-11-05T22:05:10.965Z,98568.78
2022-11-05T22:08:17.397Z,98575.00
2022-11-05T22:11:25.808Z,98570.72
2022-11-05T22:14:32.682Z,98577.81
2022-11-05T22:17:41.393Z,98572.59
2022-11-05T22:20:50.380Z,98579.66
2022-11-05T22:23:56.561Z,98590.88
2022-11-05T22:27:08.236Z,98590.09
2022-11-05T22:30:15.779Z,98585.13
2022-11-05T22:33:22.383Z,98586.44
2022-11-05T22:36:28.515Z,98584.88
2022-11-05T22:39:35.262Z,98584.22
2022-11-05T22:42:44.025Z,98579.13
2022-11-05T22:45:50.595Z,98579.13
2022-11-05T22:48:56.805Z,98586.03
2022-11-05T22:52:03.567Z,98582.44
2022-11-05T22:55:09.843Z,98582.38
2022-11-05T22:58:19.114Z,98586.75
2022-11-05T23:01:26.324Z,98586.69
2022-11-05T23:04:32.923Z,98582.31
2022-11-05T23:07:55.981Z,98582.25
2022-11-05T23:11:23.673Z,98580.47
2022-11-05T23:14:32.947Z,98590.28
2022-11-05T23:17:55.195Z,98592.19
2022-11-05T23:21:20.564Z,98597.53
2022-11-05T23:24:29.393Z,98595.81
2022-11-05T23:27:37.794Z,98602.00
2022-11-05T23:30:59.929Z,98597.72
2022-11-05T23:34:08.010Z,98604.69
2022-11-05T23:37:30.228Z,98599.53
2022-11-05T23:40:56.057Z,98602.09
2022-11-05T23:44:18.480Z,98603.75
2022-11-05T23:47:42.764Z,98600.25
2022-11-05T23:50:52.342Z,98605.47
2022-11-05T23:53:57.938Z,98603.06
2022-11-05T23:57:06.486Z,98612.66
